Hlavní strana
METAR-TAF:

METAR-TAF

Letiště :

Karlstad, Švédsko

zeměpisná šířka: 59-26-41N, zeměpisná délka: 013-20-15E, výška: 107 m

Aktuální stav počasí

Zpráva byla vytvořena před 21 minutami, v 21:50 UTC
Jižní vítr 14 kt
Teplota 5°C
Vlhkost vzduchu 93%
Tlak 1001 hPa
Viditelnost: 9000 m

METAR: ESOK 122150Z AUTO 18014KT 9000 FEW009/// SCT012/// BKN015/// 05/04 Q1001

Čas: 23:11 (22:11 UTC)

Předpověď počasí

Zpráva byla vytvořena před 4 hodinami a 41 minutami, v 17:30 UTC
Předpověď platná od 12 v 18 UTC do 12 v 20 UTC
Jižní vítr 10 kt
Viditelnost 10 km a více
Oblačno až skoro zataženo ve výšce 1500 ft
Pravděpodobnost 40%
od 12 v 18 UTC do 12 v 20 UTC
Viditelnost: 3000 m
Oblačno až skoro zataženo ve výšce 900 ft
kouřmo

TAF: ESOK 121730Z 1218/1220 18010KT 9999 BKN015 PROB40 1218/1220 3000 BR BKN009

Stav a předpovědi počasí z více než 4 000 letišť (zprávy METAR a TAF).

Červené a žluté tečky na mapě představují dostupné meteorologické stanice.

Když kurzor umístíte na tečku, zobrazí se název stanice.

Pak kliknutím zobrazíte stav a předpověď počasí.

Chcete-li změnit mapu, kliknutím na zelené tlačítko se znaménkem +mapu přiblížíte, kliknutím na zelené tlačítko se znaménkem – mapu oddálíte a kliknutím na zelené šipky přejdete na sousední mapy.


METAR-TAF: